createdAt,value
2017-06-21T00:01:24.557Z,21.90
2017-06-21T00:03:51.603Z,20.80
2017-06-21T00:06:23.548Z,22.80
2017-06-21T00:08:51.061Z,22.50
2017-06-21T00:11:18.518Z,22.87
2017-06-21T00:13:47.936Z,22.93
2017-06-21T00:16:15.320Z,23.27
2017-06-21T00:18:43.736Z,20.77
2017-06-21T00:21:13.027Z,20.53
2017-06-21T00:23:40.403Z,21.53
2017-06-21T00:26:06.657Z,21.53
2017-06-21T00:28:34.845Z,20.47
2017-06-21T00:31:04.312Z,21.20
2017-06-21T00:33:32.232Z,20.87
2017-06-21T00:36:00.702Z,20.90
2017-06-21T00:38:29.295Z,21.37
2017-06-21T00:40:56.562Z,20.83
2017-06-21T00:43:24.961Z,21.73
2017-06-21T00:45:53.005Z,21.43
2017-06-21T00:48:19.257Z,20.27
2017-06-21T00:50:46.616Z,20.90
2017-06-21T00:53:14.812Z,19.87
2017-06-21T02:44:43.700Z,20.97
2017-06-21T02:47:11.615Z,21.10
2017-06-21T02:49:58.127Z,18.17
2017-06-21T02:52:30.898Z,18.60
2017-06-21T02:54:58.233Z,20.77
2017-06-21T02:57:26.146Z,25.20
2017-06-21T02:59:52.440Z,25.13
2017-06-21T03:02:21.843Z,22.03
2017-06-21T03:04:53.941Z,24.00
2017-06-21T03:07:20.697Z,23.97
2017-06-21T03:09:48.892Z,22.57
2017-06-21T03:12:17.523Z,27.00
2017-06-21T03:14:49.188Z,26.53
2017-06-21T03:17:16.667Z,25.27
2017-06-21T03:19:43.283Z,25.67
2017-06-21T03:22:13.449Z,24.67
2017-06-21T03:24:42.225Z,23.53
2017-06-21T03:27:09.582Z,24.43
2017-06-21T03:29:36.973Z,23.00
2017-06-21T03:32:03.410Z,21.87
2017-06-21T03:34:31.220Z,22.00
2017-06-21T03:36:59.037Z,23.30
2017-06-21T03:39:31.203Z,23.40
2017-06-21T03:42:01.496Z,21.83
2017-06-21T03:44:30.933Z,21.97
2017-06-21T03:46:58.948Z,22.80
2017-06-21T03:49:28.694Z,21.90
2017-06-21T03:51:54.963Z,22.60
2017-06-21T03:54:23.080Z,23.40
2017-06-21T03:56:51.625Z,21.47
2017-06-21T03:59:18.887Z,21.67
2017-06-21T04:01:47.126Z,22.13
2017-06-21T04:04:16.850Z,22.50
2017-06-21T04:06:45.668Z,21.03
2017-06-21T04:09:11.960Z,21.57
2017-06-21T04:11:38.214Z,21.60
2017-06-21T04:14:05.251Z,21.57
2017-06-21T04:16:33.760Z,21.63
2017-06-21T04:19:00.865Z,21.60
2017-06-21T04:21:27.115Z,23.07
2017-06-21T04:23:59.888Z,20.83
2017-06-21T04:26:29.809Z,22.23
2017-06-21T04:28:58.006Z,21.03
2017-06-21T04:31:26.688Z,21.70
2017-06-21T04:33:52.937Z,21.93
2017-06-21T04:36:20.856Z,20.23
2017-06-21T04:38:49.036Z,21.60
2017-06-21T04:41:16.172Z,22.30
2017-06-21T04:43:42.455Z,22.13
2017-06-21T04:46:09.915Z,24.90
2017-06-21T04:48:38.681Z,24.80
2017-06-21T04:51:04.963Z,23.97
2017-06-21T04:53:33.084Z,24.27
2017-06-21T04:56:03.151Z,26.07
2017-06-21T04:58:31.247Z,26.30
2017-06-21T05:00:59.669Z,25.43
2017-06-21T05:03:27.610Z,25.40
2017-06-21T05:05:55.671Z,25.40
2017-06-21T05:08:22.734Z,26.07
2017-06-21T05:10:51.292Z,26.93
2017-06-21T05:13:19.032Z,25.53
2017-06-21T05:15:46.832Z,26.83
2017-06-21T05:18:16.868Z,26.60
2017-06-21T05:20:44.042Z,25.83
2017-06-21T05:23:11.805Z,27.23
2017-06-21T05:25:39.938Z,26.50
2017-06-21T05:28:08.281Z,25.80
2017-06-21T05:30:36.440Z,27.50
2017-06-21T05:33:05.524Z,27.90
2017-06-21T05:35:31.783Z,27.80
2017-06-21T05:37:59.921Z,27.30
2017-06-21T05:40:27.952Z,27.07
2017-06-21T05:42:56.710Z,29.93
2017-06-21T05:45:23.895Z,28.60
2017-06-21T05:47:53.910Z,28.90
2017-06-21T05:50:22.105Z,30.20
2017-06-21T05:52:53.810Z,30.33
2017-06-21T05:55:21.740Z,29.13
2017-06-21T05:57:49.945Z,28.60
2017-06-21T06:00:16.467Z,26.37
2017-06-21T06:02:42.721Z,30.30
2017-06-21T06:05:10.542Z,30.90
2017-06-21T06:07:37.775Z,31.03
2017-06-21T06:10:06.456Z,30.47
2017-06-21T06:12:34.140Z,27.97
2017-06-21T06:15:01.874Z,30.00
2017-06-21T06:17:28.214Z,29.57
2017-06-21T06:19:59.362Z,28.03
2017-06-21T06:22:28.368Z,28.67
2017-06-21T06:24:56.904Z,30.27
2017-06-21T06:27:25.260Z,30.27
2017-06-21T06:29:52.310Z,28.47
2017-06-21T06:32:25.220Z,31.60
2017-06-21T06:34:52.259Z,33.07
2017-06-21T06:37:21.184Z,30.50
2017-06-21T06:39:47.744Z,33.70
2017-06-21T06:42:16.323Z,38.57
2017-06-21T06:44:43.529Z,33.23
2017-06-21T06:47:13.014Z,32.27
2017-06-21T06:49:42.080Z,32.10
2017-06-21T06:52:10.609Z,30.00
2017-06-21T06:54:37.832Z,29.17
2017-06-21T06:57:04.990Z,28.40
2017-06-21T06:59:32.963Z,26.33
2017-06-21T07:02:00.939Z,26.90
2017-06-21T07:04:32.480Z,25.70
2017-06-21T07:07:02.421Z,25.07
2017-06-21T07:09:36.119Z,24.87
2017-06-21T07:14:35.004Z,24.87
2017-06-21T07:17:01.845Z,25.10
2017-06-21T07:19:29.964Z,24.40
2017-06-21T07:21:57.884Z,22.53
2017-06-21T07:24:25.815Z,24.80
2017-06-21T07:26:52.751Z,23.90
2017-06-21T07:29:19.769Z,23.07
2017-06-21T07:31:48.710Z,22.20
2017-06-21T07:34:15.493Z,23.80
2017-06-21T07:36:44.436Z,24.00
2017-06-21T07:39:11.982Z,22.83
2017-06-21T07:41:39.053Z,23.23
2017-06-21T07:44:09.931Z,24.80
2017-06-21T07:46:37.587Z,22.43
2017-06-21T07:49:06.067Z,21.80
2017-06-21T07:51:32.883Z,23.27
2017-06-21T07:53:59.136Z,23.53
2017-06-21T07:56:25.899Z,22.70
2017-06-21T07:58:54.009Z,23.37
2017-06-21T08:01:22.008Z,23.87
2017-06-21T08:03:48.948Z,24.27
2017-06-21T08:06:16.516Z,22.07
2017-06-21T08:08:44.696Z,21.73
2017-06-21T08:11:13.556Z,21.00
2017-06-21T08:13:41.948Z,24.70
2017-06-21T08:16:11.680Z,22.40
2017-06-21T08:18:40.364Z,22.20
2017-06-21T08:21:09.348Z,22.73
2017-06-21T08:23:36.403Z,20.93
2017-06-21T08:26:03.229Z,21.50
2017-06-21T08:28:30.040Z,22.97
2017-06-21T08:33:32.711Z,23.70
2017-06-21T08:35:59.904Z,23.43
2017-06-21T08:38:26.794Z,23.20
2017-06-21T08:40:55.188Z,22.10
2017-06-21T08:43:22.419Z,23.10
2017-06-21T08:45:49.904Z,23.20
2017-06-21T08:48:17.107Z,23.23
2017-06-21T08:50:43.436Z,23.20
2017-06-21T08:53:10.661Z,22.90
2017-06-21T08:55:36.884Z,20.40
2017-06-21T08:58:06.187Z,23.30
2017-06-21T09:00:34.148Z,21.80
2017-06-21T09:03:00.477Z,20.27
2017-06-21T09:05:26.775Z,20.23
2017-06-21T09:07:53.858Z,21.57
2017-06-21T09:12:53.529Z,19.60
2017-06-21T09:15:23.747Z,21.37
2017-06-21T09:17:53.381Z,19.93
2017-06-21T09:20:19.690Z,20.80
2017-06-21T09:22:48.348Z,20.30
2017-06-21T09:27:51.509Z,18.60
2017-06-21T09:30:18.558Z,19.97
2017-06-21T09:35:29.039Z,19.00
2017-06-21T09:37:59.436Z,18.87
2017-06-21T09:40:28.787Z,19.03
2017-06-21T09:42:57.581Z,18.60
2017-06-21T09:45:23.901Z,19.30
2017-06-21T09:47:52.031Z,17.30
2017-06-21T09:50:20.078Z,16.80
2017-06-21T09:52:48.185Z,15.90
2017-06-21T09:55:16.384Z,13.73
2017-06-21T09:57:46.390Z,14.00
2017-06-21T10:00:14.552Z,13.07
2017-06-21T10:02:45.775Z,13.83
2017-06-21T10:05:13.623Z,12.50
2017-06-21T10:07:43.183Z,13.17
2017-06-21T10:10:11.493Z,9.13
2017-06-21T10:12:38.849Z,10.13
2017-06-21T10:15:06.969Z,9.57
2017-06-21T10:17:37.693Z,8.80
2017-06-21T10:20:03.965Z,10.70
2017-06-21T10:22:31.047Z,10.50
2017-06-21T10:24:57.318Z,8.80
2017-06-21T10:27:25.401Z,10.10
2017-06-21T10:29:53.204Z,9.77
2017-06-21T10:32:20.702Z,10.47
2017-06-21T10:34:47.916Z,10.07
2017-06-21T10:37:15.704Z,10.40
2017-06-21T10:39:44.168Z,10.20
2017-06-21T10:42:12.349Z,12.27
2017-06-21T10:44:39.828Z,10.67
2017-06-21T10:47:08.975Z,12.07
2017-06-21T10:49:37.632Z,11.57
2017-06-21T10:52:06.536Z,11.30
2017-06-21T10:54:35.532Z,10.53
2017-06-21T10:57:02.665Z,11.03
2017-06-21T10:59:32.066Z,12.53
2017-06-21T11:02:00.052Z,12.40
2017-06-21T11:04:28.128Z,11.90
2017-06-21T11:06:54.370Z,11.80
2017-06-21T11:09:20.635Z,11.50
2017-06-21T11:11:47.095Z,11.97
2017-06-21T11:14:13.608Z,12.33
2017-06-21T11:16:39.890Z,12.70
2017-06-21T11:19:07.003Z,11.27
2017-06-21T11:21:34.107Z,10.63
2017-06-21T11:24:02.449Z,9.00
2017-06-21T11:26:29.593Z,8.47
2017-06-21T11:28:56.851Z,8.30
2017-06-21T11:31:27.707Z,8.60
2017-06-21T11:33:57.675Z,8.40
2017-06-21T11:36:25.456Z,7.87
2017-06-21T11:38:52.740Z,8.87
2017-06-21T11:41:19.913Z,7.47
2017-06-21T11:43:49.727Z,9.40
2017-06-21T11:46:18.156Z,9.13
2017-06-21T11:48:49.606Z,10.60
2017-06-21T11:51:18.719Z,9.93
2017-06-21T11:53:45.000Z,10.00
2017-06-21T11:56:12.851Z,10.47
2017-06-21T11:58:39.168Z,11.07
2017-06-21T12:01:05.788Z,10.10
2017-06-21T12:03:32.134Z,10.00
2017-06-21T12:05:58.407Z,9.67
2017-06-21T12:08:25.452Z,10.07
2017-06-21T12:11:29.186Z,9.70
2017-06-21T12:13:57.060Z,8.30
2017-06-21T12:16:23.560Z,8.67
2017-06-21T12:18:50.431Z,9.33
2017-06-21T12:21:17.718Z,9.00
2017-06-21T12:23:45.019Z,9.20
2017-06-21T12:26:11.557Z,8.93
2017-06-21T12:28:37.884Z,9.43
2017-06-21T12:31:04.157Z,10.13
2017-06-21T12:33:31.506Z,9.07
2017-06-21T12:36:01.044Z,9.17
2017-06-21T12:38:29.407Z,9.37
2017-06-21T12:40:55.680Z,10.80
2017-06-21T12:43:22.984Z,10.03
2017-06-21T12:45:56.947Z,10.50
2017-06-21T12:48:23.368Z,9.80
2017-06-21T12:50:49.621Z,11.53
2017-06-21T12:53:17.339Z,9.90
2017-06-21T12:55:46.141Z,8.80
2017-06-21T12:58:13.240Z,9.47
2017-06-21T13:00:42.180Z,9.10
2017-06-21T13:05:44.735Z,8.43
2017-06-21T13:08:15.369Z,8.30
2017-06-21T13:10:49.221Z,7.70
2017-06-21T13:13:18.030Z,8.87
2017-06-21T13:18:23.593Z,8.47
2017-06-21T13:21:00.285Z,8.77
2017-06-21T13:31:49.137Z,8.73
2017-06-21T13:34:18.702Z,8.17
2017-06-21T13:36:45.781Z,8.07
2017-06-21T13:39:12.982Z,8.33
2017-06-21T13:41:41.003Z,8.40
2017-06-21T13:44:12.042Z,8.00
2017-06-21T13:46:40.155Z,8.63
2017-06-21T13:49:09.588Z,7.40
2017-06-21T13:51:38.149Z,8.50
2017-06-21T13:54:05.388Z,9.30
2017-06-21T13:56:33.935Z,8.40
2017-06-21T13:59:01.226Z,8.77
2017-06-21T14:01:29.617Z,9.30
2017-06-21T14:03:57.592Z,9.00
2017-06-21T14:06:26.006Z,8.10
2017-06-21T14:08:53.252Z,9.00
2017-06-21T14:11:21.442Z,8.87
2017-06-21T14:13:47.713Z,7.97
2017-06-21T14:16:15.321Z,7.90
2017-06-21T14:18:43.260Z,8.10
2017-06-21T14:21:11.812Z,7.70
2017-06-21T14:23:39.505Z,8.00
2017-06-21T14:26:09.480Z,8.43
2017-06-21T14:28:37.571Z,8.03
2017-06-21T14:31:04.681Z,8.80
2017-06-21T14:33:31.865Z,8.37
2017-06-21T14:35:58.937Z,8.73
2017-06-21T14:38:26.995Z,8.23
2017-06-21T14:40:54.959Z,7.50
2017-06-21T14:43:24.967Z,8.93
2017-06-21T14:45:52.135Z,9.50
2017-06-21T14:48:19.199Z,8.60
2017-06-21T14:50:47.371Z,9.20
2017-06-21T14:53:14.763Z,8.80
2017-06-21T14:55:43.235Z,8.30
2017-06-21T14:58:33.780Z,9.47
2017-06-21T15:01:04.005Z,8.57
2017-06-21T15:03:36.563Z,8.63
2017-06-21T15:06:06.642Z,9.50
2017-06-21T15:08:35.383Z,8.87
2017-06-21T15:11:03.334Z,9.63
2017-06-21T15:13:31.731Z,9.20
2017-06-21T15:16:01.299Z,9.13
2017-06-21T15:18:28.468Z,9.60
2017-06-21T15:20:56.411Z,10.17
2017-06-21T15:23:26.661Z,10.33
2017-06-21T15:25:57.810Z,10.03
2017-06-21T15:28:25.441Z,9.73
2017-06-21T15:30:55.992Z,8.87
2017-06-21T15:33:25.864Z,9.40
2017-06-21T15:35:52.152Z,10.90
2017-06-21T15:38:22.759Z,8.87
2017-06-21T15:40:54.890Z,10.30
2017-06-21T15:43:23.848Z,9.23
2017-06-21T15:45:54.279Z,9.83
2017-06-21T15:48:23.067Z,9.80
2017-06-21T15:50:52.960Z,10.00
2017-06-21T15:53:23.475Z,10.53
2017-06-21T15:55:50.188Z,10.20
2017-06-21T15:58:32.709Z,10.10
2017-06-21T16:01:01.665Z,9.80
2017-06-21T16:03:31.020Z,10.40
2017-06-21T16:05:58.529Z,7.83
2017-06-21T16:08:26.817Z,7.70
2017-06-21T16:10:54.864Z,7.50
2017-06-21T16:13:23.211Z,7.83
2017-06-21T16:15:51.609Z,8.53
2017-06-21T16:18:20.808Z,8.87
2017-06-21T16:20:47.083Z,7.00
2017-06-21T16:23:15.437Z,8.40
2017-06-21T16:25:43.502Z,10.43
2017-06-21T16:28:12.073Z,10.13
2017-06-21T16:30:42.060Z,9.87
2017-06-21T16:33:13.898Z,11.73
2017-06-21T16:35:41.448Z,13.30
2017-06-21T16:38:09.324Z,14.10
2017-06-21T16:40:37.903Z,10.80
2017-06-21T16:43:06.585Z,10.67
2017-06-21T16:45:34.096Z,10.27
2017-06-21T16:48:02.797Z,10.97
2017-06-21T16:50:32.375Z,12.80
2017-06-21T16:53:00.597Z,21.83
2017-06-21T16:55:28.076Z,14.10
2017-06-21T16:57:57.223Z,10.30
2017-06-21T17:00:27.785Z,9.63
2017-06-21T17:02:54.369Z,10.80
2017-06-21T17:05:20.749Z,10.30
2017-06-21T17:07:47.050Z,10.33
2017-06-21T17:10:14.808Z,10.13
2017-06-21T17:12:42.743Z,9.60
2017-06-21T17:15:11.113Z,9.03
2017-06-21T17:17:37.468Z,9.20
2017-06-21T17:20:06.941Z,9.80
2017-06-21T17:22:35.109Z,10.03
2017-06-21T17:25:03.864Z,9.73
2017-06-21T17:27:30.142Z,10.60
2017-06-21T17:29:57.945Z,9.87
2017-06-21T17:32:35.762Z,10.20
2017-06-21T17:35:03.963Z,10.83
2017-06-21T17:37:32.119Z,10.73
2017-06-21T17:42:35.972Z,10.83
2017-06-21T17:45:04.258Z,11.40
2017-06-21T17:47:30.653Z,11.60
2017-06-21T17:49:58.510Z,10.63
2017-06-21T17:52:27.445Z,11.83
2017-06-21T17:54:55.410Z,10.63
2017-06-21T17:57:23.702Z,11.03
2017-06-21T17:59:53.412Z,12.80
2017-06-21T18:02:23.076Z,10.80
2017-06-21T18:04:53.635Z,11.47
2017-06-21T18:07:23.067Z,12.33
2017-06-21T18:09:51.729Z,15.80
2017-06-21T18:12:19.164Z,13.20
2017-06-21T18:14:48.514Z,13.00
2017-06-21T18:17:16.089Z,11.70
2017-06-21T18:19:44.031Z,11.60
2017-06-21T18:22:12.658Z,11.47
2017-06-21T18:24:40.622Z,10.23
2017-06-21T18:27:08.301Z,10.40
2017-06-21T18:29:37.178Z,11.03
2017-06-21T18:32:07.712Z,10.33
2017-06-21T18:34:35.763Z,11.53
2017-06-21T18:37:07.935Z,10.30
2017-06-21T18:39:37.103Z,9.80
2017-06-21T18:42:05.951Z,10.00
2017-06-21T18:44:35.162Z,10.93
2017-06-21T18:47:01.433Z,10.30
2017-06-21T18:49:31.310Z,9.70
2017-06-21T18:51:59.409Z,10.97
2017-06-21T18:57:00.033Z,10.73
2017-06-21T18:59:26.842Z,10.90
2017-06-21T19:01:54.857Z,10.90
2017-06-21T19:04:23.815Z,10.67
2017-06-21T19:06:50.126Z,11.70
2017-06-21T19:09:16.728Z,11.30
2017-06-21T19:11:46.064Z,10.70
2017-06-21T19:14:15.010Z,10.87
2017-06-21T19:16:42.953Z,10.83
2017-06-21T19:19:12.880Z,9.90
2017-06-21T19:21:41.386Z,10.10
2017-06-21T19:24:13.130Z,11.30
2017-06-21T19:26:40.923Z,11.00
2017-06-21T19:29:07.265Z,10.03
2017-06-21T19:31:35.676Z,12.50
2017-06-21T19:34:06.380Z,12.43
2017-06-21T19:36:34.408Z,11.30
2017-06-21T19:39:03.692Z,11.77
2017-06-21T19:41:32.684Z,11.50
2017-06-21T19:43:59.582Z,11.30
2017-06-21T19:46:28.817Z,12.13
2017-06-21T19:48:57.350Z,11.60
2017-06-21T19:51:25.965Z,12.83
2017-06-21T19:53:53.062Z,13.40
2017-06-21T19:56:20.512Z,12.80
2017-06-21T19:58:47.802Z,12.47
2017-06-21T20:01:15.001Z,12.40
2017-06-21T20:03:42.935Z,13.20
2017-06-21T20:06:10.101Z,12.37
2017-06-21T20:08:39.270Z,12.33
2017-06-21T20:11:10.007Z,13.00
2017-06-21T20:13:37.186Z,14.07
2017-06-21T20:16:04.462Z,13.23
2017-06-21T20:18:31.761Z,13.27
2017-06-21T20:21:00.712Z,14.27
2017-06-21T20:23:29.820Z,13.27
2017-06-21T20:26:05.506Z,14.17
2017-06-21T20:28:33.148Z,13.27
2017-06-21T20:31:00.420Z,14.93
2017-06-21T20:33:28.466Z,13.37
2017-06-21T20:35:58.075Z,13.83
2017-06-21T20:38:26.867Z,13.57
2017-06-21T20:40:56.307Z,13.10
2017-06-21T20:43:23.985Z,15.07
2017-06-21T20:45:52.307Z,15.97
2017-06-21T20:48:20.556Z,17.40
2017-06-21T20:50:46.850Z,15.23
2017-06-21T20:53:13.945Z,17.00
2017-06-21T20:55:43.764Z,17.57
2017-06-21T20:58:14.867Z,17.27
2017-06-21T21:00:42.484Z,17.63
2017-06-21T21:03:09.477Z,18.30
2017-06-21T21:05:37.716Z,16.40
2017-06-21T21:08:05.248Z,18.07
2017-06-21T21:10:34.210Z,18.07
2017-06-21T21:13:02.029Z,18.23
2017-06-21T21:15:28.739Z,17.60
2017-06-21T21:17:55.192Z,17.70
2017-06-21T21:20:22.812Z,16.87
2017-06-21T21:22:50.909Z,17.40
2017-06-21T21:25:17.868Z,17.03
2017-06-21T21:27:44.998Z,16.47
2017-06-21T21:30:12.275Z,19.07
2017-06-21T21:32:39.657Z,18.70
2017-06-21T21:35:08.045Z,18.67
2017-06-21T21:37:38.012Z,19.33
2017-06-21T21:40:05.223Z,19.03
2017-06-21T21:42:32.680Z,19.00
2017-06-21T21:45:01.158Z,17.70
2017-06-21T21:47:28.348Z,19.40
2017-06-21T21:49:56.620Z,17.37
2017-06-21T21:52:25.505Z,18.33
2017-06-21T21:54:51.931Z,16.93
2017-06-21T21:57:19.912Z,16.60
2017-06-21T21:59:48.843Z,17.57
2017-06-21T22:02:15.968Z,16.67
2017-06-21T22:04:43.424Z,16.70
2017-06-21T22:07:09.976Z,15.53
2017-06-21T22:09:38.346Z,16.27
2017-06-21T22:12:07.742Z,15.90
2017-06-21T22:14:35.247Z,19.60
2017-06-21T22:17:02.566Z,17.97
2017-06-21T22:19:30.616Z,18.50
2017-06-21T22:22:01.018Z,18.93
2017-06-21T22:24:29.740Z,18.53
2017-06-21T22:26:57.015Z,19.00
2017-06-21T22:29:24.105Z,18.80
2017-06-21T22:31:53.337Z,19.20
2017-06-21T22:34:22.498Z,18.00
2017-06-21T22:36:49.050Z,18.73
2017-06-21T22:39:32.306Z,18.27
2017-06-21T22:42:00.220Z,17.50
2017-06-21T22:44:29.392Z,17.93
2017-06-21T22:46:57.376Z,19.97
2017-06-21T22:49:26.146Z,17.90
2017-06-21T22:51:56.128Z,18.03
2017-06-21T22:54:25.808Z,16.90
2017-06-21T22:56:53.741Z,19.73
2017-06-21T22:59:20.009Z,19.00
2017-06-21T23:01:47.075Z,17.60
2017-06-21T23:04:15.112Z,18.90
2017-06-21T23:06:44.598Z,18.57
2017-06-21T23:09:11.948Z,18.30
2017-06-21T23:11:40.024Z,18.30
2017-06-21T23:14:10.168Z,18.87
2017-06-21T23:16:39.397Z,19.00
2017-06-21T23:19:05.667Z,18.53
2017-06-21T23:21:34.097Z,18.60
2017-06-21T23:24:02.429Z,18.53
2017-06-21T23:26:31.969Z,17.70
2017-06-21T23:28:59.103Z,18.03
2017-06-21T23:31:26.693Z,17.60
2017-06-21T23:33:54.833Z,16.67
2017-06-21T23:36:22.762Z,17.17
2017-06-21T23:38:51.627Z,18.00
2017-06-21T23:41:19.620Z,17.10
2017-06-21T23:43:48.753Z,17.70
2017-06-21T23:46:15.017Z,18.50
2017-06-21T23:48:43.810Z,17.40
2017-06-21T23:51:11.857Z,17.67
2017-06-21T23:53:39.781Z,16.83
2017-06-21T23:56:07.719Z,16.63
2017-06-21T23:58:36.774Z,18.50
